createdAt,value
2022-09-12T00:01:23.358Z,99.90
2022-09-12T00:03:58.207Z,99.90
2022-09-12T00:06:29.224Z,99.90
2022-09-12T00:08:58.331Z,99.90
2022-09-12T00:11:28.422Z,99.90
2022-09-12T00:14:00.676Z,99.90
2022-09-12T00:16:29.694Z,99.90
2022-09-12T00:18:56.414Z,99.90
2022-09-12T00:21:23.446Z,99.90
2022-09-12T00:23:50.963Z,99.90
2022-09-12T00:26:19.099Z,99.90
2022-09-12T00:28:47.091Z,99.90
2022-09-12T00:31:21.198Z,99.90
2022-09-12T00:33:48.029Z,99.90
2022-09-12T00:36:24.517Z,99.90
2022-09-12T00:38:51.533Z,99.90
2022-09-12T00:41:28.102Z,99.90
2022-09-12T00:44:05.662Z,99.90
2022-09-12T00:46:49.308Z,99.90
2022-09-12T00:49:26.887Z,99.90
2022-09-12T00:52:13.580Z,99.90
2022-09-12T00:55:02.091Z,99.90
2022-09-12T00:57:37.582Z,99.90
2022-09-12T01:00:15.159Z,99.90
2022-09-12T01:02:51.407Z,99.90
2022-09-12T01:05:18.272Z,99.90
2022-09-12T01:07:48.433Z,99.90
2022-09-12T01:10:15.167Z,99.90
2022-09-12T01:12:43.241Z,99.90
2022-09-12T01:15:11.009Z,99.90
2022-09-12T01:17:56.132Z,99.90
2022-09-12T01:20:44.424Z,99.90
2022-09-12T01:24:02.530Z,99.90
2022-09-12T01:27:18.427Z,99.90
2022-09-12T01:29:59.960Z,99.90
2022-09-12T01:32:42.830Z,99.90
2022-09-12T01:35:27.687Z,99.90
2022-09-12T01:38:32.930Z,99.90
2022-09-12T01:41:19.667Z,99.90
2022-09-12T01:44:02.358Z,99.90
2022-09-12T01:46:52.191Z,99.90
2022-09-12T01:49:35.946Z,99.90
2022-09-12T01:52:32.909Z,99.90
2022-09-12T01:55:09.447Z,99.90
2022-09-12T01:57:56.631Z,99.90
2022-09-12T02:00:31.449Z,99.90
2022-09-12T02:03:03.909Z,99.90
2022-09-12T02:05:46.859Z,99.90
2022-09-12T02:08:42.141Z,99.90
2022-09-12T02:11:11.768Z,99.90
2022-09-12T02:13:48.936Z,99.90
2022-09-12T02:16:33.774Z,99.90
2022-09-12T02:19:09.865Z,99.90
2022-09-12T02:21:43.480Z,99.90
2022-09-12T02:24:12.559Z,99.90
2022-09-12T02:26:47.389Z,99.90
2022-09-12T02:29:14.133Z,99.90
2022-09-12T02:31:47.937Z,99.90
2022-09-12T02:34:33.504Z,99.90
2022-09-12T02:37:06.834Z,99.90
2022-09-12T02:39:35.029Z,99.90
2022-09-12T02:42:06.031Z,99.90
2022-09-12T02:44:34.754Z,99.90
2022-09-12T02:47:20.154Z,99.90
2022-09-12T02:49:47.368Z,99.90
2022-09-12T02:52:14.193Z,99.90
2022-09-12T02:54:41.304Z,99.90
2022-09-12T02:57:22.564Z,99.90
2022-09-12T02:59:53.203Z,99.90
2022-09-12T03:02:53.661Z,99.90
2022-09-12T03:05:34.270Z,99.90
2022-09-12T03:08:32.036Z,99.90
2022-09-12T03:11:20.786Z,99.90
2022-09-12T03:13:53.258Z,99.90
2022-09-12T03:16:45.259Z,99.90
2022-09-12T03:19:34.054Z,99.90
2022-09-12T03:22:18.994Z,99.90
2022-09-12T03:25:05.534Z,99.90
2022-09-12T03:27:42.841Z,99.90
2022-09-12T03:30:12.641Z,99.90
2022-09-12T03:32:49.077Z,99.90
2022-09-12T03:35:22.235Z,99.90
2022-09-12T03:37:50.483Z,99.90
2022-09-12T03:40:17.737Z,99.90
2022-09-12T03:42:46.907Z,99.90
2022-09-12T03:45:13.697Z,99.90
2022-09-12T03:47:40.381Z,99.90
2022-09-12T03:50:09.705Z,99.90
2022-09-12T03:52:40.562Z,99.90
2022-09-12T03:55:07.831Z,99.90
2022-09-12T03:57:34.447Z,99.90
2022-09-12T04:00:02.100Z,99.90
2022-09-12T04:02:29.366Z,99.90
2022-09-12T04:04:58.607Z,99.90
2022-09-12T04:07:25.383Z,99.90
2022-09-12T04:09:53.276Z,99.90
2022-09-12T04:12:20.510Z,99.90
2022-09-12T04:14:47.780Z,99.90
2022-09-12T04:17:14.998Z,99.90
2022-09-12T04:19:41.667Z,99.90
2022-09-12T04:22:08.325Z,99.90
2022-09-12T04:24:34.989Z,99.90
2022-09-12T04:27:07.687Z,99.90
2022-09-12T04:29:36.815Z,99.90
2022-09-12T04:32:04.107Z,99.90
2022-09-12T04:34:32.447Z,99.90
2022-09-12T04:36:59.403Z,99.90
2022-09-12T04:39:26.209Z,99.90
2022-09-12T04:41:55.360Z,99.90
2022-09-12T04:44:22.304Z,99.90
2022-09-12T04:46:49.074Z,99.90
2022-09-12T04:49:19.249Z,99.90
2022-09-12T04:51:48.831Z,99.90
2022-09-12T04:54:18.433Z,99.90
2022-09-12T04:56:52.480Z,99.90
2022-09-12T04:59:20.969Z,99.90
2022-09-12T05:01:50.393Z,99.90
2022-09-12T05:04:17.205Z,99.90
2022-09-12T05:06:44.246Z,99.90
2022-09-12T05:09:12.327Z,99.90
2022-09-12T05:14:29.774Z,99.90
2022-09-12T05:17:00.633Z,99.90
2022-09-12T05:19:33.354Z,99.90
2022-09-12T05:22:00.154Z,99.90
2022-09-12T05:24:26.909Z,99.90
2022-09-12T05:26:53.547Z,99.90
2022-09-12T05:29:22.682Z,99.90
2022-09-12T05:31:52.029Z,99.90
2022-09-12T05:34:19.615Z,99.90
2022-09-12T05:36:46.463Z,99.90
2022-09-12T05:39:13.161Z,99.90
2022-09-12T05:41:42.371Z,99.90
2022-09-12T05:44:15.351Z,99.90
2022-09-12T05:46:44.112Z,99.90
2022-09-12T05:49:12.962Z,99.90
2022-09-12T05:51:42.357Z,99.90
2022-09-12T05:54:11.925Z,99.90
2022-09-12T05:56:40.812Z,99.90
2022-09-12T05:59:20.719Z,99.90
2022-09-12T06:01:47.799Z,99.90
2022-09-12T06:04:17.587Z,99.90
2022-09-12T06:06:46.878Z,99.90
2022-09-12T06:09:17.569Z,99.90
2022-09-12T06:11:45.933Z,99.90
2022-09-12T06:14:16.951Z,99.90
2022-09-12T06:16:44.025Z,99.90
2022-09-12T06:19:19.483Z,99.90
2022-09-12T06:21:47.508Z,99.90
2022-09-12T06:24:14.198Z,99.90
2022-09-12T06:26:40.943Z,99.90
2022-09-12T06:29:08.492Z,99.90
2022-09-12T06:31:39.304Z,99.90
2022-09-12T06:34:09.374Z,99.90
2022-09-12T06:36:42.000Z,99.90
2022-09-12T06:39:17.435Z,99.90
2022-09-12T06:41:45.214Z,99.90
2022-09-12T06:44:16.000Z,99.90
2022-09-12T06:46:51.933Z,99.90
2022-09-12T06:49:23.351Z,99.90
2022-09-12T06:51:50.049Z,99.90
2022-09-12T06:54:17.152Z,99.90
2022-09-12T06:56:44.858Z,99.90
2022-09-12T06:59:12.067Z,99.90
2022-09-12T07:01:40.220Z,99.90
2022-09-12T07:04:07.111Z,99.90
2022-09-12T07:06:41.521Z,99.90
2022-09-12T07:09:11.501Z,99.90
2022-09-12T07:11:41.905Z,99.90
2022-09-12T07:14:10.599Z,99.90
2022-09-12T07:16:40.129Z,99.90
2022-09-12T07:19:08.347Z,99.90
2022-09-12T07:21:40.305Z,99.90
2022-09-12T07:24:09.482Z,99.90
2022-09-12T07:26:36.458Z,99.90
2022-09-12T07:29:32.368Z,99.90
2022-09-12T07:31:52.208Z,99.90
2022-09-12T07:34:18.887Z,99.90
2022-09-12T07:36:45.660Z,99.90
2022-09-12T07:39:12.361Z,99.90
2022-09-12T07:41:41.784Z,99.90
2022-09-12T07:44:08.567Z,99.90
2022-09-12T07:46:35.380Z,99.90
2022-09-12T07:49:03.142Z,99.90
2022-09-12T07:51:35.877Z,99.90
2022-09-12T07:54:03.538Z,99.90
2022-09-12T07:56:38.227Z,99.90
2022-09-12T07:59:05.706Z,99.90
2022-09-12T08:01:32.711Z,99.90
2022-09-12T08:04:04.674Z,99.90
2022-09-12T08:06:32.125Z,99.90
2022-09-12T08:08:59.545Z,99.90
2022-09-12T08:11:28.425Z,99.90
2022-09-12T08:13:57.189Z,99.90
2022-09-12T08:16:31.273Z,99.90
2022-09-12T08:18:58.267Z,99.90
2022-09-12T08:21:28.065Z,99.90
2022-09-12T08:23:57.776Z,99.90
2022-09-12T08:26:24.859Z,99.90
2022-09-12T08:28:52.035Z,99.90
2022-09-12T08:31:20.758Z,99.90
2022-09-12T08:33:47.636Z,99.90
2022-09-12T08:36:23.765Z,99.90
2022-09-12T08:38:59.243Z,99.90
2022-09-12T08:41:41.848Z,99.90
2022-09-12T08:44:20.436Z,99.90
2022-09-12T08:47:15.162Z,99.90
2022-09-12T08:50:03.072Z,99.90
2022-09-12T08:52:33.822Z,99.90
2022-09-12T08:55:06.427Z,99.90
2022-09-12T08:57:33.410Z,99.90
2022-09-12T09:00:04.124Z,99.90
2022-09-12T09:02:39.745Z,99.90
2022-09-12T09:05:27.183Z,99.90
2022-09-12T09:08:17.864Z,99.90
2022-09-12T09:11:03.590Z,99.90
2022-09-12T09:14:17.118Z,99.90
2022-09-12T09:16:46.191Z,99.90
2022-09-12T09:19:21.581Z,99.90
2022-09-12T09:22:14.682Z,99.90
2022-09-12T09:24:59.701Z,99.90
2022-09-12T09:27:44.087Z,99.90
2022-09-12T09:30:19.505Z,99.90
2022-09-12T09:32:50.948Z,99.90
2022-09-12T09:35:43.713Z,99.90
2022-09-12T09:38:19.697Z,99.90
2022-09-12T09:40:55.053Z,99.90
2022-09-12T09:43:29.062Z,99.90
2022-09-12T09:45:58.412Z,99.90
2022-09-12T09:48:32.264Z,99.90
2022-09-12T09:51:01.875Z,99.90
2022-09-12T09:53:37.144Z,99.90
2022-09-12T09:56:11.088Z,99.90
2022-09-12T09:58:39.300Z,99.90
2022-09-12T10:01:14.575Z,99.90
2022-09-12T10:03:54.716Z,99.90
2022-09-12T10:06:35.520Z,99.90
2022-09-12T10:09:23.769Z,99.90
2022-09-12T10:11:54.380Z,99.90
2022-09-12T10:14:39.810Z,99.90
2022-09-12T10:17:49.407Z,98.60
2022-09-12T10:20:54.404Z,96.60
2022-09-12T10:23:37.612Z,95.90
2022-09-12T10:26:10.759Z,93.10
2022-09-12T10:28:43.503Z,91.00
2022-09-12T10:31:15.419Z,87.20
2022-09-12T10:33:52.693Z,83.70
2022-09-12T10:36:23.769Z,83.90
2022-09-12T10:38:57.809Z,85.00
2022-09-12T10:41:25.014Z,79.40
2022-09-12T10:43:51.813Z,78.60
2022-09-12T10:46:28.297Z,77.10
2022-09-12T10:49:22.106Z,80.10
2022-09-12T10:51:54.501Z,78.10
2022-09-12T10:54:27.265Z,76.60
2022-09-12T10:57:12.863Z,76.30
2022-09-12T11:00:06.920Z,73.50
2022-09-12T11:02:58.541Z,73.60
2022-09-12T11:05:51.785Z,73.00
2022-09-12T11:08:50.008Z,67.30
2022-09-12T11:11:37.090Z,66.70
2022-09-12T11:14:26.444Z,68.60
2022-09-12T11:17:04.942Z,65.80
2022-09-12T11:19:51.111Z,66.30
2022-09-12T11:22:33.093Z,61.10
2022-09-12T11:25:39.577Z,55.60
2022-09-12T11:28:30.453Z,59.60
2022-09-12T11:31:19.938Z,58.00
2022-09-12T11:33:54.983Z,57.20
2022-09-12T11:36:44.881Z,55.80
2022-09-12T11:39:13.845Z,55.80
2022-09-12T11:41:44.116Z,57.90
2022-09-12T11:44:49.013Z,59.30
2022-09-12T11:47:15.753Z,57.10
2022-09-12T11:49:51.471Z,56.10
2022-09-12T11:52:27.980Z,52.70
2022-09-12T11:55:01.034Z,54.70
2022-09-12T11:57:54.966Z,53.30
2022-09-12T12:00:44.033Z,52.10
2022-09-12T12:03:39.504Z,49.50
2022-09-12T12:06:29.002Z,51.50
2022-09-12T12:08:58.325Z,49.80
2022-09-12T12:11:32.731Z,49.10
2022-09-12T12:14:06.395Z,47.00
2022-09-12T12:16:37.552Z,47.40
2022-09-12T12:19:11.774Z,45.60
2022-09-12T12:21:49.805Z,47.70
2022-09-12T12:24:19.793Z,48.00
2022-09-12T12:27:02.549Z,47.10
2022-09-12T12:29:35.379Z,48.20
2022-09-12T12:32:04.802Z,47.60
2022-09-12T12:34:40.635Z,46.20
2022-09-12T12:37:21.506Z,45.70
2022-09-12T12:39:51.172Z,46.40
2022-09-12T12:42:33.338Z,46.60
2022-09-12T12:45:11.146Z,47.10
2022-09-12T12:47:37.759Z,49.20
2022-09-12T12:50:23.784Z,47.90
2022-09-12T12:53:07.181Z,49.70
2022-09-12T12:55:42.685Z,47.10
2022-09-12T12:58:32.585Z,48.10
2022-09-12T13:01:18.143Z,50.00
2022-09-12T13:03:47.727Z,51.80
2022-09-12T13:06:31.058Z,50.70
2022-09-12T13:09:10.285Z,51.60
2022-09-12T13:11:39.802Z,50.00
2022-09-12T13:14:27.597Z,48.80
2022-09-12T13:16:58.087Z,48.90
2022-09-12T13:19:30.427Z,49.50
2022-09-12T13:22:00.713Z,49.70
2022-09-12T13:24:28.188Z,50.10
2022-09-12T13:26:55.440Z,50.40
2022-09-12T13:29:24.251Z,52.10
2022-09-12T13:31:59.117Z,52.00
2022-09-12T13:34:33.115Z,53.50
2022-09-12T13:37:30.534Z,53.00
2022-09-12T13:40:29.661Z,52.60
2022-09-12T13:43:17.384Z,53.50
2022-09-12T13:45:46.982Z,53.30
2022-09-12T13:48:21.069Z,52.40
2022-09-12T13:50:59.990Z,51.70
2022-09-12T13:53:31.244Z,52.10
2022-09-12T13:56:01.696Z,54.00
2022-09-12T13:58:34.500Z,53.60
2022-09-12T14:01:07.481Z,54.00
2022-09-12T14:04:12.037Z,52.70
2022-09-12T14:06:51.425Z,52.90
2022-09-12T14:09:28.816Z,52.80
2022-09-12T14:11:58.304Z,52.90
2022-09-12T14:14:36.008Z,52.70
2022-09-12T14:17:18.966Z,52.70
2022-09-12T14:19:49.333Z,53.10
2022-09-12T14:22:17.954Z,53.80
2022-09-12T14:24:50.041Z,53.20
2022-09-12T14:27:45.715Z,53.10
2022-09-12T14:30:27.366Z,53.90
2022-09-12T14:33:20.131Z,54.00
2022-09-12T14:36:09.746Z,53.00
2022-09-12T14:38:42.515Z,54.40
2022-09-12T14:41:14.187Z,53.80
2022-09-12T14:43:46.006Z,54.80
2022-09-12T14:46:22.459Z,54.40
2022-09-12T14:48:53.081Z,55.00
2022-09-12T14:51:25.706Z,56.40
2022-09-12T14:53:52.547Z,56.30
2022-09-12T14:56:22.517Z,55.50
2022-09-12T14:59:13.042Z,56.20
2022-09-12T15:01:39.886Z,56.20
2022-09-12T15:04:06.854Z,57.20
2022-09-12T15:06:38.527Z,60.70
2022-09-12T15:09:13.128Z,55.80
2022-09-12T15:11:40.223Z,54.20
2022-09-12T15:14:14.144Z,58.90
2022-09-12T15:16:43.495Z,55.30
2022-09-12T15:19:12.317Z,60.20
2022-09-12T15:21:46.507Z,60.30
2022-09-12T15:24:15.798Z,57.90
2022-09-12T15:26:53.817Z,53.60
2022-09-12T15:29:23.324Z,54.50
2022-09-12T15:31:51.606Z,54.30
2022-09-12T15:34:19.621Z,54.70
2022-09-12T15:36:46.251Z,54.30
2022-09-12T15:39:13.489Z,55.30
2022-09-12T15:42:00.946Z,54.30
2022-09-12T15:44:33.958Z,57.00
2022-09-12T15:47:05.043Z,55.30
2022-09-12T15:49:32.206Z,56.40
2022-09-12T15:51:59.696Z,54.80
2022-09-12T15:54:26.714Z,54.10
2022-09-12T15:56:53.513Z,51.50
2022-09-12T15:59:20.245Z,55.10
2022-09-12T16:01:47.172Z,54.20
2022-09-12T16:04:26.713Z,54.60
2022-09-12T16:06:54.812Z,52.30
2022-09-12T16:09:26.255Z,52.80
2022-09-12T16:11:53.057Z,51.70
2022-09-12T16:14:20.013Z,52.50
2022-09-12T16:16:53.810Z,52.90
2022-09-12T16:19:20.656Z,52.60
2022-09-12T16:21:47.759Z,53.10
2022-09-12T16:24:14.546Z,52.80
2022-09-12T16:26:41.270Z,53.20
2022-09-12T16:29:14.517Z,53.00
2022-09-12T16:31:41.265Z,53.40
2022-09-12T16:34:08.179Z,55.00
2022-09-12T16:36:34.845Z,54.10
2022-09-12T16:39:03.747Z,53.80
2022-09-12T16:41:32.577Z,53.90
2022-09-12T16:43:59.392Z,54.70
2022-09-12T16:46:30.833Z,54.80
2022-09-12T16:48:58.635Z,54.50
2022-09-12T16:51:32.604Z,54.80
2022-09-12T16:54:01.478Z,54.80
2022-09-12T16:56:28.406Z,55.10
2022-09-12T16:58:55.225Z,55.90
2022-09-12T17:01:26.845Z,56.30
2022-09-12T17:03:58.771Z,56.00
2022-09-12T17:06:28.271Z,56.70
2022-09-12T17:09:02.918Z,57.90
2022-09-12T17:11:33.136Z,58.50
2022-09-12T17:14:04.870Z,58.50
2022-09-12T17:16:45.930Z,59.00
2022-09-12T17:19:26.354Z,59.20
2022-09-12T17:21:54.017Z,65.60
2022-09-12T17:24:21.220Z,67.30
2022-09-12T17:26:47.906Z,68.40
2022-09-12T17:29:17.978Z,70.80
2022-09-12T17:31:45.277Z,71.60
2022-09-12T17:34:16.189Z,74.90
2022-09-12T17:36:48.366Z,74.00
2022-09-12T17:39:15.410Z,75.90
2022-09-12T17:41:42.995Z,76.80
2022-09-12T17:44:12.788Z,78.50
2022-09-12T17:46:40.351Z,80.30
2022-09-12T17:49:15.097Z,82.50
2022-09-12T17:51:43.649Z,81.10
2022-09-12T17:54:16.008Z,82.30
2022-09-12T17:56:44.742Z,82.20
2022-09-12T17:59:15.348Z,82.20
2022-09-12T18:02:04.004Z,84.50
2022-09-12T18:04:33.061Z,85.30
2022-09-12T18:07:00.571Z,87.40
2022-09-12T18:09:28.144Z,87.50
2022-09-12T18:12:00.488Z,86.20
2022-09-12T18:14:28.290Z,85.20
2022-09-12T18:16:57.806Z,84.90
2022-09-12T18:19:24.515Z,83.70
2022-09-12T18:21:51.242Z,83.80
2022-09-12T18:24:17.960Z,84.10
2022-09-12T18:26:44.964Z,84.20
2022-09-12T18:29:12.671Z,84.60
2022-09-12T18:31:39.670Z,85.20
2022-09-12T18:34:07.761Z,86.60
2022-09-12T18:36:34.371Z,86.40
2022-09-12T18:39:01.059Z,86.60
2022-09-12T18:41:28.980Z,86.70
2022-09-12T18:44:12.571Z,87.30
2022-09-12T18:46:39.476Z,88.10
2022-09-12T18:49:07.758Z,88.50
2022-09-12T18:51:45.016Z,88.80
2022-09-12T18:54:14.506Z,89.00
2022-09-12T18:56:43.754Z,89.60
2022-09-12T18:59:13.980Z,90.00
2022-09-12T19:01:41.795Z,90.50
2022-09-12T19:04:09.862Z,90.80
2022-09-12T19:06:42.543Z,91.20
2022-09-12T19:09:10.719Z,91.50
2022-09-12T19:11:51.643Z,91.70
2022-09-12T19:14:23.338Z,92.10
2022-09-12T19:16:53.373Z,92.40
2022-09-12T19:19:21.139Z,92.90
2022-09-12T19:21:47.886Z,93.10
2022-09-12T19:24:16.271Z,93.40
2022-09-12T19:26:43.169Z,93.70
2022-09-12T19:29:14.846Z,93.90
2022-09-12T19:31:41.564Z,94.10
2022-09-12T19:34:08.439Z,94.40
2022-09-12T19:36:51.177Z,94.80
2022-09-12T19:39:19.623Z,95.10
2022-09-12T19:41:49.177Z,95.80
2022-09-12T19:44:19.236Z,96.50
2022-09-12T19:46:48.438Z,97.10
2022-09-12T19:49:15.217Z,97.60
2022-09-12T19:51:44.400Z,98.00
2022-09-12T19:54:11.230Z,98.50
2022-09-12T19:56:38.236Z,99.00
2022-09-12T19:59:05.068Z,99.50
2022-09-12T20:01:36.956Z,99.90
2022-09-12T20:04:04.567Z,99.90
2022-09-12T20:06:33.568Z,99.90
2022-09-12T20:09:00.404Z,99.90
2022-09-12T20:11:27.462Z,99.90
2022-09-12T20:13:54.235Z,99.90
2022-09-12T20:16:28.892Z,99.90
2022-09-12T20:19:07.013Z,99.90
2022-09-12T20:21:35.858Z,99.90
2022-09-12T20:24:13.271Z,99.90
2022-09-12T20:26:40.580Z,99.90
2022-09-12T20:29:10.551Z,99.90
2022-09-12T20:31:43.153Z,99.90
2022-09-12T20:34:19.505Z,99.90
2022-09-12T20:36:47.128Z,99.90
2022-09-12T20:39:18.258Z,99.90
2022-09-12T20:41:45.329Z,99.90
2022-09-12T20:44:14.569Z,99.90
2022-09-12T20:46:41.462Z,99.90
2022-09-12T20:49:08.862Z,99.90
2022-09-12T20:51:38.967Z,99.90
2022-09-12T20:54:12.528Z,99.90
2022-09-12T20:56:39.291Z,99.90
2022-09-12T20:59:06.188Z,99.90
2022-09-12T21:01:33.313Z,99.90
2022-09-12T21:04:01.090Z,99.90
2022-09-12T21:06:31.429Z,99.90
2022-09-12T21:08:59.852Z,99.90
2022-09-12T21:11:28.097Z,99.90
2022-09-12T21:13:54.875Z,99.90
2022-09-12T21:16:27.371Z,99.90
2022-09-12T21:18:58.630Z,99.90
2022-09-12T21:21:28.648Z,99.90
2022-09-12T21:24:04.429Z,99.90
2022-09-12T21:26:32.082Z,99.90
2022-09-12T21:28:58.928Z,99.90
2022-09-12T21:31:26.141Z,99.90
2022-09-12T21:33:52.881Z,99.90
2022-09-12T21:36:19.694Z,99.90
2022-09-12T21:38:48.988Z,99.90
2022-09-12T21:41:18.359Z,99.90
2022-09-12T21:43:45.416Z,99.90
2022-09-12T21:46:12.739Z,99.90
2022-09-12T21:48:41.997Z,99.90
2022-09-12T21:51:11.127Z,99.90
2022-09-12T21:53:39.970Z,99.90
2022-09-12T21:56:10.485Z,99.90
2022-09-12T21:58:37.563Z,99.90
2022-09-12T22:01:05.735Z,99.90
2022-09-12T22:03:32.479Z,99.90
2022-09-12T22:06:01.685Z,99.90
2022-09-12T22:08:30.029Z,99.90
2022-09-12T22:11:02.086Z,99.90
2022-09-12T22:13:32.189Z,99.90
2022-09-12T22:16:00.590Z,99.90
2022-09-12T22:18:27.331Z,99.90
2022-09-12T22:21:02.374Z,99.90
2022-09-12T22:23:47.526Z,99.90
2022-09-12T22:26:14.254Z,99.90
2022-09-12T22:28:47.148Z,99.90
2022-09-12T22:31:15.087Z,99.90
2022-09-12T22:33:41.829Z,99.90
2022-09-12T22:36:11.078Z,99.90
2022-09-12T22:38:38.018Z,99.90
2022-09-12T22:41:11.036Z,99.90
2022-09-12T22:43:38.215Z,99.90
2022-09-12T22:46:14.567Z,99.90
2022-09-12T22:48:41.867Z,99.90
2022-09-12T22:51:09.383Z,99.90
2022-09-12T22:53:38.861Z,99.90
2022-09-12T22:56:06.076Z,99.90
2022-09-12T22:58:36.681Z,99.90
2022-09-12T23:01:04.671Z,99.90
2022-09-12T23:03:31.939Z,99.90
2022-09-12T23:06:00.900Z,99.90
2022-09-12T23:08:30.163Z,99.90
2022-09-12T23:11:10.419Z,99.90
2022-09-12T23:13:38.124Z,99.90
2022-09-12T23:16:08.492Z,99.90
2022-09-12T23:18:36.271Z,99.90
2022-09-12T23:21:04.202Z,99.90
2022-09-12T23:23:31.490Z,99.90
2022-09-12T23:26:06.719Z,99.90
2022-09-12T23:28:39.197Z,99.90
2022-09-12T23:31:07.612Z,99.90
2022-09-12T23:33:34.382Z,99.90
2022-09-12T23:36:12.635Z,99.90
2022-09-12T23:38:39.251Z,99.90
2022-09-12T23:41:06.117Z,99.90
2022-09-12T23:43:33.980Z,99.90
2022-09-12T23:46:01.359Z,99.90
2022-09-12T23:48:28.564Z,99.90
2022-09-12T23:50:57.608Z,99.90
2022-09-12T23:53:26.891Z,99.90
2022-09-12T23:55:53.903Z,99.90
2022-09-12T23:58:22.489Z,99.90
